Tervuren Meer informatie Tervuren


Bezoek onze andere website:

Meteotemplate

Home Weather Station

Saratoga


U vindt ons ook hier:

UK Metoffice

European Weather Network

WeatherCloud

Weather Underground

Benelux Weer Netwerk

AWEKAS

Citizen Weather Observer Program (CWOP)


Apparatuur in gebruik:

Davis VP2

Meteobridge


METAR rapporten vliegvelden

   
EBBR - Brussels
Gewijzigd: Apr 19 2018 8:50 pm
Helder  
Helder  
   Wind: WZW 7.4 km/h
Wind: WZW 7.4 km/h
Temperatuur: 21°C
Dauwpunt: 12°C
Vochtigheid: 57%
Barometer: 1024 mb
Zicht: meer dan 10 km
Bewolking: Helder
EBBR 191850Z 24004KT CAVOK 21/12 Q1024 NOSIG
EBAW - Antwerp
Gewijzigd: Apr 19 2018 8:50 pm
Helder  
Helder  
   Wind: WZW 7.4 km/h
Wind: WZW 7.4 km/h
Temperatuur: 25°C
Dauwpunt: 9°C
Vochtigheid: 36%
Barometer: 1023 mb
Zicht: meer dan 10 km
Bewolking: Helder
EBAW 191850Z 24004KT CAVOK 25/09 Q1023 NOSIG
EHBK - Maastricht
Gewijzigd: Apr 19 2018 8:55 pm
Helder  
Helder  
   Wind: ZZO 9.3 km/h
Wind: ZZO 9.3 km/h
Temperatuur: 22°C
Dauwpunt: 8°C
Vochtigheid: 41%
Barometer: 1024 mb
Bewolking: Helder
Zicht: meer dan 10 km
Bewolking: Helder
EHBK 191855Z AUTO 16005KT 110V190 9999 NCD 22/08 Q1024 NOSIG
EDLV - Nijmegen
Gewijzigd: Apr 19 2018 8:50 pm
Helder  
Helder  
   Wind: ZO 5.6 km/h
Wind: ZO 5.6 km/h
Temperatuur: 24°C
Dauwpunt: 6°C
Vochtigheid: 31%
Barometer: 1024 mb
Zicht: meer dan 10 km
Bewolking: Helder
EDLV 191850Z 14003KT CAVOK 24/06 Q1024
EHRD - Rotterdam
Gewijzigd: Apr 19 2018 8:55 pm
Gedeeltelijk bewolkt  
Gedeeltelijk bewolkt  
   Wind: NNO 3.7 km/h
Wind: NNO 3.7 km/h
Temperatuur: 18°C
Dauwpunt: 12°C
Vochtigheid: 68%
Barometer: 1023 mb
Bewolking: Gedeeltelijk bewolkt
Zicht: meer dan 10 km
Bewolking: Gedeeltelijk bewolkt
EHRD 191855Z AUTO 02002KT 9999 NSC 18/12 Q1023 NOSIG
 

Script ontwikkeld door  Saratoga-weather.org Aangepast voor de template door  Weerstation Leuven